Time,TemperatureF,DewpointF,PressureIn,WindDirection,WindDirectionDegrees,WindSpeedMPH,WindSpeedGustMPH,Humidity,HourlyPrecipIn,Conditions,Clouds,dailyrainin,SoftwareType,DateUTC
2013-05-14 00:00:00,67.5,42.3,29.83,NE,45,0.0,6.0,40,0.00,,,0.00,Weather View 32 v70,2013-05-14 07:00:00,
2013-05-14 00:15:00,68.2,40.9,29.83,NE,45,0.0,6.0,37,0.00,,,0.00,Weather View 32 v70,2013-05-14 07:15:00,
2013-05-14 00:30:00,67.9,40.6,29.82,NE,45,0.0,5.0,37,0.00,,,0.00,Weather View 32 v70,2013-05-14 07:30:00,
2013-05-14 00:45:00,67.3,42.1,29.82,NE,45,1.0,5.0,40,0.00,,,0.00,Weather View 32 v70,2013-05-14 07:45:00,
2013-05-14 01:00:00,66.7,41.6,29.81,NE,45,0.0,3.0,40,0.00,,,0.00,Weather View 32 v70,2013-05-14 08:00:00,
2013-05-14 01:15:00,67.0,39.8,29.81,NE,45,0.0,3.0,37,0.00,,,0.00,Weather View 32 v70,2013-05-14 08:15:00,
2013-05-14 01:30:00,65.9,41.5,29.80,NE,45,0.0,3.0,41,0.00,,,0.00,Weather View 32 v70,2013-05-14 08:30:00,
2013-05-14 01:45:00,64.8,42.9,29.80,WNW,298,3.0,4.0,45,0.00,,,0.00,Weather View 32 v70,2013-05-14 08:45:00,
2013-05-14 02:00:00,63.4,43.3,29.80,NW,323,3.0,5.0,48,0.00,,,0.00,Weather View 32 v70,2013-05-14 09:00:00,
2013-05-14 02:15:00,64.0,42.8,29.81,NW,323,5.0,5.0,46,0.00,,,0.00,Weather View 32 v70,2013-05-14 09:15:00,
2013-05-14 02:30:00,64.4,40.8,29.81,NNE,20,6.0,9.0,42,0.00,,,0.00,Weather View 32 v70,2013-05-14 09:30:00,
2013-05-14 02:45:00,64.9,41.8,29.81,NNE,32,3.0,9.0,43,0.00,,,0.00,Weather View 32 v70,2013-05-14 09:45:00,
2013-05-14 03:00:00,63.2,41.5,29.81,ESE,103,3.0,9.0,45,0.00,,,0.00,Weather View 32 v70,2013-05-14 10:00:00,
2013-05-14 03:15:00,63.4,41.6,29.81,NE,50,0.0,9.0,45,0.00,,,0.00,Weather View 32 v70,2013-05-14 10:15:00,
2013-05-14 03:30:00,63.9,42.1,29.81,NE,35,0.0,9.0,45,0.00,,,0.00,Weather View 32 v70,2013-05-14 10:30:00,
2013-05-14 03:45:00,63.0,42.4,29.81,NNE,29,4.0,9.0,47,0.00,,,0.00,Weather View 32 v70,2013-05-14 10:45:00,
2013-05-14 04:00:00,63.8,42.0,29.80,NNE,30,4.0,7.0,45,0.00,,,0.00,Weather View 32 v70,2013-05-14 11:00:00,
2013-05-14 04:15:00,63.4,42.2,29.80,NNE,25,2.0,7.0,46,0.00,,,0.00,Weather View 32 v70,2013-05-14 11:15:00,
2013-05-14 04:30:00,63.3,42.1,29.80,NNE,26,2.0,7.0,46,0.00,,,0.00,Weather View 32 v70,2013-05-14 11:30:00,
2013-05-14 04:45:00,63.0,43.0,29.80,NNE,26,2.0,7.0,48,0.00,,,0.00,Weather View 32 v70,2013-05-14 11:45:00,
2013-05-14 05:00:00,62.3,42.3,29.79,NNE,26,1.0,5.0,48,0.00,,,0.00,Weather View 32 v70,2013-05-14 12:00:00,
2013-05-14 05:15:00,62.3,41.8,29.79,NNE,26,0.0,5.0,47,0.00,,,0.00,Weather View 32 v70,2013-05-14 12:15:00,
2013-05-14 05:30:00,62.3,41.8,29.79,NNE,26,1.0,5.0,47,0.00,,,0.00,Weather View 32 v70,2013-05-14 12:30:00,
2013-05-14 05:45:00,63.0,41.8,29.79,NNE,26,0.0,4.0,46,0.00,,,0.00,Weather View 32 v70,2013-05-14 12:45:00,
2013-05-14 06:00:00,62.8,41.7,29.79,NNE,26,1.0,3.0,46,0.00,,,0.00,Weather View 32 v70,2013-05-14 13:00:00,
2013-05-14 06:15:00,62.5,41.9,29.79,NNE,26,4.0,4.0,47,0.00,,,0.00,Weather View 32 v70,2013-05-14 13:15:00,
2013-05-14 06:30:00,62.5,41.9,29.79,NNE,26,0.0,4.0,47,0.00,,,0.00,Weather View 32 v70,2013-05-14 13:30:00,
2013-05-14 06:45:00,62.8,42.2,29.80,NNE,26,0.0,4.0,47,0.00,,,0.00,Weather View 32 v70,2013-05-14 13:45:00,
2013-05-14 07:00:00,60.9,43.1,29.80,NNW,327,3.0,4.0,52,0.00,,,0.00,Weather View 32 v70,2013-05-14 14:00:00,
2013-05-14 07:15:00,60.5,45.2,29.80,NNW,329,0.0,4.0,57,0.00,,,0.00,Weather View 32 v70,2013-05-14 14:15:00,
2013-05-14 07:30:00,62.0,45.1,29.81,West,259,3.0,4.0,54,0.00,,,0.00,Weather View 32 v70,2013-05-14 14:30:00,
2013-05-14 07:45:00,63.7,43.6,29.81,NNW,336,0.0,4.0,48,0.00,,,0.00,Weather View 32 v70,2013-05-14 14:45:00,
2013-05-14 08:00:00,65.1,46.5,29.81,NNW,331,2.0,4.0,51,0.00,,,0.00,Weather View 32 v70,2013-05-14 15:00:00,
2013-05-14 08:15:00,65.0,48.4,29.81,NW,309,8.0,9.0,55,0.00,,,0.00,Weather View 32 v70,2013-05-14 15:15:00,
2013-05-14 08:30:00,64.7,47.1,29.81,NW,317,3.0,10.0,53,0.00,,,0.00,Weather View 32 v70,2013-05-14 15:30:00,
2013-05-14 08:45:00,65.5,47.4,29.82,NW,309,6.0,10.0,52,0.00,,,0.00,Weather View 32 v70,2013-05-14 15:45:00,
2013-05-14 09:00:00,66.5,48.3,29.82,NNW,340,5.0,10.0,52,0.00,,,0.00,Weather View 32 v70,2013-05-14 16:00:00,
2013-05-14 09:15:00,67.0,50.3,29.82,NW,316,4.0,10.0,55,0.00,,,0.00,Weather View 32 v70,2013-05-14 16:15:00,
2013-05-14 09:30:00,68.1,51.3,29.82,NW,316,7.0,9.0,55,0.00,,,0.00,Weather View 32 v70,2013-05-14 16:30:00,
2013-05-14 09:45:00,70.3,51.8,29.83,SW,235,2.0,10.0,52,0.00,,,0.00,Weather View 32 v70,2013-05-14 16:45:00,
2013-05-14 10:00:00,70.9,52.9,29.84,NNW,344,2.0,10.0,53,0.00,,,0.00,Weather View 32 v70,2013-05-14 17:00:00,
2013-05-14 10:15:00,71.1,53.0,29.83,WSW,254,1.0,10.0,53,0.00,,,0.00,Weather View 32 v70,2013-05-14 17:15:00,
2013-05-14 10:20:00,71.1,53.0,29.83,WSW,254,1.0,10.0,53,0.00,,,0.00,Weather View 32 v70,2013-05-14 17:20:00,
2013-05-14 10:30:00,72.1,52.4,29.84,NNW,333,3.0,10.0,50,0.00,,,0.00,Weather View 32 v70,2013-05-14 17:30:00,
2013-05-14 10:45:00,74.0,50.6,29.84,SSW,198,0.0,7.0,44,0.00,,,0.00,Weather View 32 v70,2013-05-14 17:45:00,
2013-05-14 11:00:00,76.0,50.5,29.85,ESE,116,0.0,8.0,41,0.00,,,0.00,Weather View 32 v70,2013-05-14 18:00:00,
2013-05-14 11:15:00,77.1,53.4,29.84,SE,143,1.0,9.0,44,0.00,,,0.00,Weather View 32 v70,2013-05-14 18:15:00,
2013-05-14 11:20:00,77.1,53.4,29.84,SE,143,1.0,9.0,44,0.00,,,0.00,Weather View 32 v70,2013-05-14 18:20:00,
2013-05-14 11:30:00,77.6,49.9,29.84,SSE,147,3.0,9.0,38,0.00,,,0.00,Weather View 32 v70,2013-05-14 18:30:00,
2013-05-14 11:45:00,79.6,47.1,29.85,NW,307,3.0,9.0,32,0.00,,,0.00,Weather View 32 v70,2013-05-14 18:45:00,
2013-05-14 12:00:00,76.9,48.6,29.85,West,265,0.0,9.0,37,0.00,,,0.00,Weather View 32 v70,2013-05-14 19:00:00,
2013-05-14 12:15:00,81.0,48.3,29.85,SSW,198,3.0,8.0,32,0.00,,,0.00,Weather View 32 v70,2013-05-14 19:15:00,
2013-05-14 12:21:00,81.0,48.3,29.85,SSW,198,3.0,8.0,32,0.00,,,0.00,Weather View 32 v70,2013-05-14 19:21:00,
2013-05-14 12:30:00,80.9,47.3,29.84,SW,215,7.0,8.0,31,0.00,,,0.00,Weather View 32 v70,2013-05-14 19:30:00,
2013-05-14 12:45:00,81.7,45.3,29.84,SSW,211,6.0,11.0,28,0.00,,,0.00,Weather View 32 v70,2013-05-14 19:45:00,
2013-05-14 12:46:00,81.7,47.2,29.84,SW,236,6.0,11.0,30,0.00,,,0.00,Weather View 32 v70,2013-05-14 19:46:00,
2013-05-14 17:33:00,79.0,45.7,29.81,West,273,1.0,3.0,31,0.00,,,0.00,Weather View 32 v70,2013-05-15 00:33:00,
2013-05-14 17:38:00,79.5,47.0,29.81,SW,223,5.0,7.0,32,0.00,,,0.00,Weather View 32 v70,2013-05-15 00:38:00,
2013-05-14 17:43:00,79.8,46.4,29.81,SW,227,9.0,10.0,31,0.00,,,0.00,Weather View 32 v70,2013-05-15 00:43:00,
2013-05-14 18:00:00,79.4,47.7,29.80,WNW,288,6.0,10.0,33,0.00,,,0.00,Weather View 32 v70,2013-05-15 01:00:00,
2013-05-14 18:15:00,79.0,48.9,29.80,West,259,4.0,10.0,35,0.00,,,0.00,Weather View 32 v70,2013-05-15 01:15:00,
2013-05-14 18:30:00,79.5,48.6,29.80,West,264,1.0,10.0,34,0.00,,,0.00,Weather View 32 v70,2013-05-15 01:30:00,
2013-05-14 18:50:00,78.9,48.8,29.80,WSW,238,5.0,10.0,35,0.00,,,0.00,Weather View 32 v70,2013-05-15 01:50:00,
2013-05-14 18:55:00,78.6,49.3,29.80,West,260,2.0,9.0,36,0.00,,,0.00,Weather View 32 v70,2013-05-15 01:55:00,
2013-05-14 19:15:00,77.2,49.5,29.81,SSW,209,4.0,11.0,38,0.00,,,0.00,Weather View 32 v70,2013-05-15 02:15:00,
2013-05-14 19:30:00,75.9,49.8,29.82,WSW,257,2.0,11.0,40,0.00,,,0.00,Weather View 32 v70,2013-05-15 02:30:00,
2013-05-14 19:45:00,74.3,50.3,29.82,WSW,238,2.0,11.0,43,0.00,,,0.00,Weather View 32 v70,2013-05-15 02:45:00,
2013-05-14 19:50:00,74.3,50.3,29.82,WSW,238,2.0,11.0,43,0.00,,,0.00,Weather View 32 v70,2013-05-15 02:50:00,
2013-05-14 20:00:00,72.7,50.1,29.83,North,0,0.0,11.0,45,0.00,,,0.00,Weather View 32 v70,2013-05-15 03:00:00,
2013-05-14 20:15:00,71.3,50.5,29.83,North,355,1.0,7.0,48,0.00,,,0.00,Weather View 32 v70,2013-05-15 03:15:00,
2013-05-14 20:30:00,70.3,50.7,29.84,NE,46,1.0,7.0,50,0.00,,,0.00,Weather View 32 v70,2013-05-15 03:30:00,
2013-05-14 20:45:00,67.1,50.8,29.84,NE,37,4.0,7.0,56,0.00,,,0.00,Weather View 32 v70,2013-05-15 03:45:00,
2013-05-14 20:51:00,67.1,50.8,29.84,NE,37,4.0,7.0,56,0.00,,,0.00,Weather View 32 v70,2013-05-15 03:51:00,
2013-05-14 21:00:00,66.0,50.8,29.85,NE,34,4.0,7.0,58,0.00,,,0.00,Weather View 32 v70,2013-05-15 04:00:00,
2013-05-14 21:15:00,65.5,50.3,29.86,NNE,28,7.0,8.0,58,0.00,,,0.00,Weather View 32 v70,2013-05-15 04:15:00,
2013-05-14 21:30:00,65.6,50.4,29.86,NNE,24,4.0,8.0,58,0.00,,,0.00,Weather View 32 v70,2013-05-15 04:30:00,
2013-05-14 21:45:00,65.7,50.0,29.86,NE,36,5.0,9.0,57,0.00,,,0.00,Weather View 32 v70,2013-05-15 04:45:00,
2013-05-14 21:52:00,65.7,50.0,29.86,NE,36,5.0,9.0,57,0.00,,,0.00,Weather View 32 v70,2013-05-15 04:52:00,
2013-05-14 22:00:00,65.5,49.8,29.87,NNE,20,5.0,9.0,57,0.00,,,0.00,Weather View 32 v70,2013-05-15 05:00:00,
2013-05-14 22:15:00,65.5,49.8,29.87,ENE,67,1.0,9.0,57,0.00,,,0.00,Weather View 32 v70,2013-05-15 05:15:00,
2013-05-14 22:30:00,65.5,49.8,29.87,NE,53,5.0,9.0,57,0.00,,,0.00,Weather View 32 v70,2013-05-15 05:30:00,
2013-05-14 22:45:00,65.5,49.3,29.87,North,355,4.0,8.0,56,0.00,,,0.00,Weather View 32 v70,2013-05-15 05:45:00,
2013-05-14 22:52:00,65.5,49.3,29.87,North,355,4.0,8.0,56,0.00,,,0.00,Weather View 32 v70,2013-05-15 05:52:00,
2013-05-14 23:00:00,65.4,49.3,29.87,East,98,0.0,8.0,56,0.00,,,0.00,Weather View 32 v70,2013-05-15 06:00:00,
2013-05-14 23:15:00,64.7,49.1,29.86,NNE,17,5.0,8.0,57,0.00,,,0.00,Weather View 32 v70,2013-05-15 06:15:00,
2013-05-14 23:30:00,64.1,48.0,29.86,NNE,25,3.0,8.0,56,0.00,,,0.00,Weather View 32 v70,2013-05-15 06:30:00,
2013-05-14 23:45:00,63.6,49.0,29.87,NNE,22,0.0,7.0,59,0.00,,,0.00,Weather View 32 v70,2013-05-15 06:45:00,
2013-05-14 23:53:00,63.6,49.0,29.87,NNE,22,0.0,7.0,59,0.00,,,0.00,Weather View 32 v70,2013-05-15 06:53:00,